sensor_id;sensor_type;location;lat;lon;timestamp;pressure;altitude;pressure_sealevel;temperature;humidity
40612;BME280;26317;44.894;20.286;2022-07-23T00:00:43;100648.97;;;27.27;39.77
40612;BME280;26317;44.894;20.286;2022-07-23T00:03:12;100641.03;;;27.19;39.53
40612;BME280;26317;44.894;20.286;2022-07-23T00:05:44;100642.66;;;27.23;39.44
40612;BME280;26317;44.894;20.286;2022-07-23T00:08:13;100641.44;;;27.21;38.92
40612;BME280;26317;44.894;20.286;2022-07-23T00:10:41;100653.25;;;27.21;38.77
40612;BME280;26317;44.894;20.286;2022-07-23T00:13:10;100645.38;;;27.20;38.93
40612;BME280;26317;44.894;20.286;2022-07-23T00:15:39;100645.34;;;27.16;38.90
40612;BME280;26317;44.894;20.286;2022-07-23T00:18:08;100648.50;;;27.18;38.87
40612;BME280;26317;44.894;20.286;2022-07-23T00:20:37;100639.31;;;27.04;39.58
40612;BME280;26317;44.894;20.286;2022-07-23T00:23:08;100657.88;;;27.14;39.52
40612;BME280;26317;44.894;20.286;2022-07-23T00:25:37;100659.09;;;27.13;39.56
40612;BME280;26317;44.894;20.286;2022-07-23T00:28:06;100655.47;;;27.05;39.26
40612;BME280;26317;44.894;20.286;2022-07-23T00:30:35;100657.44;;;27.05;39.78
40612;BME280;26317;44.894;20.286;2022-07-23T00:33:05;100650.63;;;26.91;39.59
40612;BME280;26317;44.894;20.286;2022-07-23T00:35:37;100662.06;;;26.97;39.88
40612;BME280;26317;44.894;20.286;2022-07-23T00:38:10;100672.63;;;26.91;40.09
40612;BME280;26317;44.894;20.286;2022-07-23T00:40:39;100673.34;;;26.85;40.17
40612;BME280;26317;44.894;20.286;2022-07-23T00:43:08;100664.63;;;26.79;40.77
40612;BME280;26317;44.894;20.286;2022-07-23T00:45:38;100655.03;;;26.66;40.56
40612;BME280;26317;44.894;20.286;2022-07-23T00:48:07;100664.44;;;26.65;40.79
40612;BME280;26317;44.894;20.286;2022-07-23T00:50:36;100664.41;;;26.62;41.22
40612;BME280;26317;44.894;20.286;2022-07-23T00:53:05;100669.44;;;26.56;41.64
40612;BME280;26317;44.894;20.286;2022-07-23T00:55:37;100674.09;;;26.48;41.64
40612;BME280;26317;44.894;20.286;2022-07-23T00:58:06;100666.09;;;26.40;42.18
40612;BME280;26317;44.894;20.286;2022-07-23T01:00:36;100664.06;;;26.33;41.69
40612;BME280;26317;44.894;20.286;2022-07-23T01:03:05;100666.41;;;26.31;42.13
40612;BME280;26317;44.894;20.286;2022-07-23T01:05:34;100664.72;;;26.23;41.96
40612;BME280;26317;44.894;20.286;2022-07-23T01:08:05;100666.19;;;26.17;42.29
40612;BME280;26317;44.894;20.286;2022-07-23T01:10:37;100650.97;;;25.97;42.58
40612;BME280;26317;44.894;20.286;2022-07-23T01:13:07;100662.88;;;26.04;42.67
40612;BME280;26317;44.894;20.286;2022-07-23T01:15:38;100670.75;;;26.06;43.05
40612;BME280;26317;44.894;20.286;2022-07-23T01:18:07;100667.16;;;26.02;42.42
40612;BME280;26317;44.894;20.286;2022-07-23T01:20:38;100667.00;;;25.91;42.86
40612;BME280;26317;44.894;20.286;2022-07-23T01:23:11;100648.84;;;25.83;43.01
40612;BME280;26317;44.894;20.286;2022-07-23T01:25:49;100671.34;;;25.92;42.99
40612;BME280;26317;44.894;20.286;2022-07-23T01:28:21;100655.88;;;25.84;43.14
40612;BME280;26317;44.894;20.286;2022-07-23T01:30:50;100658.28;;;25.86;43.21
40612;BME280;26317;44.894;20.286;2022-07-23T01:33:19;100657.88;;;25.84;43.27
40612;BME280;26317;44.894;20.286;2022-07-23T01:35:49;100654.28;;;25.80;43.08
40612;BME280;26317;44.894;20.286;2022-07-23T01:38:24;100654.28;;;25.80;42.86
40612;BME280;26317;44.894;20.286;2022-07-23T01:40:53;100635.13;;;25.60;43.12
40612;BME280;26317;44.894;20.286;2022-07-23T01:43:29;100659.69;;;25.76;43.40
40612;BME280;26317;44.894;20.286;2022-07-23T01:45:57;100649.81;;;25.72;43.39
40612;BME280;26317;44.894;20.286;2022-07-23T01:48:32;100655.59;;;25.63;43.26
40612;BME280;26317;44.894;20.286;2022-07-23T01:51:16;100654.84;;;25.66;43.52
40612;BME280;26317;44.894;20.286;2022-07-23T01:53:56;100654.41;;;25.64;44.04
40612;BME280;26317;44.894;20.286;2022-07-23T01:56:25;100650.78;;;25.56;43.88
40612;BME280;26317;44.894;20.286;2022-07-23T01:58:54;100647.22;;;25.56;43.35
40612;BME280;26317;44.894;20.286;2022-07-23T02:01:23;100647.63;;;25.54;43.45
40612;BME280;26317;44.894;20.286;2022-07-23T02:03:52;100656.53;;;25.51;43.58
40612;BME280;26317;44.894;20.286;2022-07-23T02:06:21;100648.31;;;25.51;43.74
40612;BME280;26317;44.894;20.286;2022-07-23T02:08:50;100647.09;;;25.49;44.28
40612;BME280;26317;44.894;20.286;2022-07-23T02:11:24;100664.38;;;25.49;43.76
40612;BME280;26317;44.894;20.286;2022-07-23T02:13:53;100659.63;;;25.46;44.06
40612;BME280;26317;44.894;20.286;2022-07-23T02:16:22;100658.38;;;25.44;43.93
40612;BME280;26317;44.894;20.286;2022-07-23T02:18:50;100652.41;;;25.38;43.60
40612;BME280;26317;44.894;20.286;2022-07-23T02:21:19;100652.41;;;25.38;43.70
40612;BME280;26317;44.894;20.286;2022-07-23T02:23:48;100651.19;;;25.36;43.76
40612;BME280;26317;44.894;20.286;2022-07-23T02:26:17;100645.66;;;25.32;44.65
40612;BME280;26317;44.894;20.286;2022-07-23T02:28:53;100653.44;;;25.30;44.27
40612;BME280;26317;44.894;20.286;2022-07-23T02:31:21;100662.41;;;25.27;44.24
40612;BME280;26317;44.894;20.286;2022-07-23T02:33:50;100662.72;;;25.22;44.53
40612;BME280;26317;44.894;20.286;2022-07-23T02:36:19;100657.97;;;25.19;45.14
40612;BME280;26317;44.894;20.286;2022-07-23T02:38:48;100661.88;;;25.18;45.07
40612;BME280;26317;44.894;20.286;2022-07-23T02:41:18;100654.38;;;25.15;44.93
40612;BME280;26317;44.894;20.286;2022-07-23T02:43:47;100655.09;;;25.12;44.35
40612;BME280;26317;44.894;20.286;2022-07-23T02:46:18;100654.66;;;25.10;44.50
40612;BME280;26317;44.894;20.286;2022-07-23T02:48:47;100655.06;;;25.08;44.44
40612;BME280;26317;44.894;20.286;2022-07-23T02:51:17;100653.41;;;25.04;44.64
40612;BME280;26317;44.894;20.286;2022-07-23T02:53:53;100654.09;;;25.01;44.95
40612;BME280;26317;44.894;20.286;2022-07-23T02:56:21;100656.09;;;25.00;44.71
40612;BME280;26317;44.894;20.286;2022-07-23T02:58:50;100656.78;;;24.97;44.73
40612;BME280;26317;44.894;20.286;2022-07-23T03:01:23;100658.03;;;25.00;44.88
40612;BME280;26317;44.894;20.286;2022-07-23T03:03:51;100660.41;;;25.01;44.87
40612;BME280;26317;44.894;20.286;2022-07-23T03:06:21;100661.13;;;24.98;44.69
40612;BME280;26317;44.894;20.286;2022-07-23T03:08:50;100654.97;;;25.05;45.32
40612;BME280;26317;44.894;20.286;2022-07-23T03:11:19;100668.69;;;25.05;45.40
40612;BME280;26317;44.894;20.286;2022-07-23T03:13:48;100656.44;;;24.99;45.00
40612;BME280;26317;44.894;20.286;2022-07-23T03:16:17;100667.41;;;24.99;45.16
40612;BME280;26317;44.894;20.286;2022-07-23T03:18:48;100662.34;;;25.01;45.16
40612;BME280;26317;44.894;20.286;2022-07-23T03:21:18;100667.47;;;25.02;45.11
40612;BME280;26317;44.894;20.286;2022-07-23T03:23:47;100668.34;;;25.06;45.58
40612;BME280;26317;44.894;20.286;2022-07-23T03:26:17;100665.88;;;25.01;45.29
40612;BME280;26317;44.894;20.286;2022-07-23T03:28:46;100676.50;;;25.03;45.53
40612;BME280;26317;44.894;20.286;2022-07-23T03:31:15;100670.56;;;25.01;45.95
40612;BME280;26317;44.894;20.286;2022-07-23T03:33:44;100669.44;;;25.02;45.97
40612;BME280;26317;44.894;20.286;2022-07-23T03:36:15;100667.84;;;25.01;46.30
40612;BME280;26317;44.894;20.286;2022-07-23T03:38:45;100669.00;;;25.00;46.10
40612;BME280;26317;44.894;20.286;2022-07-23T03:41:14;100670.56;;;25.01;46.16
40612;BME280;26317;44.894;20.286;2022-07-23T03:43:44;100671.25;;;24.94;45.87
40612;BME280;26317;44.894;20.286;2022-07-23T03:46:13;100675.94;;;24.94;46.72
40612;BME280;26317;44.894;20.286;2022-07-23T03:48:42;100673.94;;;24.91;46.82
40612;BME280;26317;44.894;20.286;2022-07-23T03:51:10;100655.34;;;24.84;47.20
40612;BME280;26317;44.894;20.286;2022-07-23T03:53:43;100673.19;;;24.94;46.98
40612;BME280;26317;44.894;20.286;2022-07-23T03:56:12;100629.88;;;24.64;47.19
40612;BME280;26317;44.894;20.286;2022-07-23T03:58:41;100678.34;;;24.95;48.16
40612;BME280;26317;44.894;20.286;2022-07-23T04:01:10;100684.56;;;24.92;47.87
40612;BME280;26317;44.894;20.286;2022-07-23T04:03:39;100686.06;;;24.90;48.06
40612;BME280;26317;44.894;20.286;2022-07-23T04:06:08;100684.47;;;24.89;48.35
40612;BME280;26317;44.894;20.286;2022-07-23T04:08:37;100675.88;;;24.90;48.41
40612;BME280;26317;44.894;20.286;2022-07-23T04:11:08;100678.97;;;24.89;48.29
40612;BME280;26317;44.894;20.286;2022-07-23T04:13:37;100679.25;;;24.84;48.08
40612;BME280;26317;44.894;20.286;2022-07-23T04:16:06;100677.66;;;24.83;46.88
40612;BME280;26317;44.894;20.286;2022-07-23T04:18:35;100676.53;;;24.84;46.96
40612;BME280;26317;44.894;20.286;2022-07-23T04:21:15;100685.47;;;24.81;47.48
40612;BME280;26317;44.894;20.286;2022-07-23T04:23:45;100686.69;;;24.83;47.07
40612;BME280;26317;44.894;20.286;2022-07-23T04:26:17;100648.69;;;24.62;47.39
40612;BME280;26317;44.894;20.286;2022-07-23T04:28:47;100673.78;;;24.84;47.42
40612;BME280;26317;44.894;20.286;2022-07-23T04:31:16;100680.41;;;24.83;48.38
40612;BME280;26317;44.894;20.286;2022-07-23T04:33:45;100654.28;;;24.69;47.79
40612;BME280;26317;44.894;20.286;2022-07-23T04:36:13;100671.47;;;24.86;47.83
40612;BME280;26317;44.894;20.286;2022-07-23T04:38:42;100673.50;;;24.89;48.05
40612;BME280;26317;44.894;20.286;2022-07-23T04:41:11;100666.44;;;24.88;47.71
40612;BME280;26317;44.894;20.286;2022-07-23T04:43:43;100659.06;;;24.92;47.22
40612;BME280;26317;44.894;20.286;2022-07-23T04:46:12;100673.31;;;25.01;46.65
40612;BME280;26317;44.894;20.286;2022-07-23T04:48:46;100665.53;;;25.03;46.35
40612;BME280;26317;44.894;20.286;2022-07-23T04:51:15;100680.22;;;25.14;46.10
40612;BME280;26317;44.894;20.286;2022-07-23T04:53:44;100674.38;;;25.15;46.21
40612;BME280;26317;44.894;20.286;2022-07-23T04:56:12;100678.03;;;25.23;46.29
40612;BME280;26317;44.894;20.286;2022-07-23T04:58:44;100673.47;;;25.31;45.54
40612;BME280;26317;44.894;20.286;2022-07-23T05:01:13;100673.97;;;25.36;45.27
40612;BME280;26317;44.894;20.286;2022-07-23T05:03:42;100645.19;;;25.30;45.45
40612;BME280;26317;44.894;20.286;2022-07-23T05:06:11;100670.75;;;25.53;45.42
40612;BME280;26317;44.894;20.286;2022-07-23T05:08:40;100670.06;;;25.60;45.51
40612;BME280;26317;44.894;20.286;2022-07-23T05:11:10;100674.88;;;25.67;44.79
40612;BME280;26317;44.894;20.286;2022-07-23T05:13:39;100675.72;;;25.71;45.00
40612;BME280;26317;44.894;20.286;2022-07-23T05:16:11;100675.84;;;25.78;45.29
40612;BME280;26317;44.894;20.286;2022-07-23T05:18:41;100679.00;;;25.80;44.98
40612;BME280;26317;44.894;20.286;2022-07-23T05:21:10;100686.19;;;25.88;45.03
40612;BME280;26317;44.894;20.286;2022-07-23T05:23:39;100682.75;;;25.94;44.79
40612;BME280;26317;44.894;20.286;2022-07-23T05:26:07;100675.31;;;25.95;45.52
40612;BME280;26317;44.894;20.286;2022-07-23T05:28:36;100680.50;;;26.00;45.02
40612;BME280;26317;44.894;20.286;2022-07-23T05:31:06;100682.50;;;26.03;45.05
40612;BME280;26317;44.894;20.286;2022-07-23T05:33:37;100676.28;;;26.09;44.92
40612;BME280;26317;44.894;20.286;2022-07-23T05:36:07;100682.56;;;26.10;45.80
40612;BME280;26317;44.894;20.286;2022-07-23T05:38:44;100683.84;;;26.16;46.77
40612;BME280;26317;44.894;20.286;2022-07-23T05:41:12;100675.59;;;26.16;46.02
40612;BME280;26317;44.894;20.286;2022-07-23T05:43:41;100684.38;;;26.22;45.71
40612;BME280;26317;44.894;20.286;2022-07-23T05:46:11;100690.03;;;26.36;46.80
40612;BME280;26317;44.894;20.286;2022-07-23T05:48:44;100692.50;;;26.44;45.28
40612;BME280;26317;44.894;20.286;2022-07-23T05:51:34;100694.13;;;26.49;43.48
40612;BME280;26317;44.894;20.286;2022-07-23T05:54:03;100702.88;;;26.54;43.90
40612;BME280;26317;44.894;20.286;2022-07-23T05:56:36;100698.59;;;26.61;44.06
40612;BME280;26317;44.894;20.286;2022-07-23T05:59:06;100688.81;;;26.63;44.44
40612;BME280;26317;44.894;20.286;2022-07-23T06:01:35;100699.19;;;26.77;44.83
40612;BME280;26317;44.894;20.286;2022-07-23T06:04:11;100702.03;;;26.84;44.40
40612;BME280;26317;44.894;20.286;2022-07-23T06:06:51;100693.88;;;26.91;43.38
40612;BME280;26317;44.894;20.286;2022-07-23T06:09:21;100697.44;;;26.95;42.19
40612;BME280;26317;44.894;20.286;2022-07-23T06:11:50;100692.78;;;26.99;41.83
40612;BME280;26317;44.894;20.286;2022-07-23T06:14:19;100694.06;;;27.09;40.45
40612;BME280;26317;44.894;20.286;2022-07-23T06:16:52;100692.97;;;27.17;41.39
40612;BME280;26317;44.894;20.286;2022-07-23T06:19:24;100692.66;;;27.25;40.90
40612;BME280;26317;44.894;20.286;2022-07-23T06:21:53;100689.53;;;27.30;41.33
40612;BME280;26317;44.894;20.286;2022-07-23T06:24:22;100680.13;;;27.35;41.04
40612;BME280;26317;44.894;20.286;2022-07-23T06:26:51;100687.41;;;27.54;40.37
40612;BME280;26317;44.894;20.286;2022-07-23T06:29:20;100684.72;;;27.64;41.14
40612;BME280;26317;44.894;20.286;2022-07-23T06:31:49;100688.34;;;27.72;40.82
40612;BME280;26317;44.894;20.286;2022-07-23T06:34:18;100684.47;;;27.80;38.96
40612;BME280;26317;44.894;20.286;2022-07-23T06:36:49;100687.63;;;27.82;40.05
40612;BME280;26317;44.894;20.286;2022-07-23T06:39:18;100696.75;;;27.93;39.14
40612;BME280;26317;44.894;20.286;2022-07-23T06:41:49;100694.84;;;28.01;37.93
40612;BME280;26317;44.894;20.286;2022-07-23T06:44:18;100686.94;;;27.99;39.16
40612;BME280;26317;44.894;20.286;2022-07-23T06:46:48;100687.81;;;28.10;38.06
40612;BME280;26317;44.894;20.286;2022-07-23T06:49:20;100703.66;;;28.24;37.94
40612;BME280;26317;44.894;20.286;2022-07-23T06:51:52;100706.06;;;28.32;38.52
40612;BME280;26317;44.894;20.286;2022-07-23T06:54:20;100705.72;;;28.41;38.55
40612;BME280;26317;44.894;20.286;2022-07-23T06:56:50;100706.19;;;28.54;39.64
40612;BME280;26317;44.894;20.286;2022-07-23T06:59:19;100706.19;;;28.61;39.81
40612;BME280;26317;44.894;20.286;2022-07-23T07:01:47;100707.88;;;28.76;39.60
40612;BME280;26317;44.894;20.286;2022-07-23T07:04:16;100701.56;;;28.83;38.30
40612;BME280;26317;44.894;20.286;2022-07-23T07:06:45;100696.06;;;28.90;36.47
40612;BME280;26317;44.894;20.286;2022-07-23T07:09:17;100692.94;;;28.98;36.93
40612;BME280;26317;44.894;20.286;2022-07-23T07:11:46;100692.56;;;29.10;37.35
40612;BME280;26317;44.894;20.286;2022-07-23T07:14:15;100687.44;;;29.23;38.32
40612;BME280;26317;44.894;20.286;2022-07-23T07:16:44;100690.66;;;29.29;37.69
40612;BME280;26317;44.894;20.286;2022-07-23T07:19:12;100688.28;;;29.45;37.07
40612;BME280;26317;44.894;20.286;2022-07-23T07:21:41;100694.59;;;29.52;35.25
40612;BME280;26317;44.894;20.286;2022-07-23T07:24:10;100693.81;;;29.66;36.18
40612;BME280;26317;44.894;20.286;2022-07-23T07:26:41;100696.97;;;29.72;35.23
40612;BME280;26317;44.894;20.286;2022-07-23T07:29:10;100690.22;;;29.83;33.95
40612;BME280;26317;44.894;20.286;2022-07-23T07:31:39;100685.50;;;29.91;34.82
40612;BME280;26317;44.894;20.286;2022-07-23T07:34:08;100663.75;;;29.89;35.64
40612;BME280;26317;44.894;20.286;2022-07-23T07:36:36;100690.59;;;30.06;33.35
40612;BME280;26317;44.894;20.286;2022-07-23T07:39:05;100688.19;;;30.23;32.91
40612;BME280;26317;44.894;20.286;2022-07-23T07:41:36;100686.59;;;30.29;33.71
40612;BME280;26317;44.894;20.286;2022-07-23T07:44:07;100682.59;;;30.37;31.77
40612;BME280;26317;44.894;20.286;2022-07-23T07:46:36;100687.31;;;30.54;30.95
40612;BME280;26317;44.894;20.286;2022-07-23T07:49:05;100683.31;;;30.62;31.32
40612;BME280;26317;44.894;20.286;2022-07-23T07:51:34;100686.84;;;30.70;31.43
40612;BME280;26317;44.894;20.286;2022-07-23T07:54:03;100682.41;;;30.83;30.32
40612;BME280;26317;44.894;20.286;2022-07-23T07:56:32;100678.00;;;30.99;29.41
40612;BME280;26317;44.894;20.286;2022-07-23T07:59:00;100681.47;;;31.11;29.26
40612;BME280;26317;44.894;20.286;2022-07-23T08:01:32;100681.41;;;31.21;29.58
40612;BME280;26317;44.894;20.286;2022-07-23T08:04:01;100684.91;;;31.29;29.95
40612;BME280;26317;44.894;20.286;2022-07-23T08:06:30;100675.41;;;31.30;30.32
40612;BME280;26317;44.894;20.286;2022-07-23T08:08:59;100675.72;;;31.39;31.61
40612;BME280;26317;44.894;20.286;2022-07-23T08:11:27;100681.16;;;31.49;29.59
40612;BME280;26317;44.894;20.286;2022-07-23T08:13:56;100678.34;;;31.60;28.97
40612;BME280;26317;44.894;20.286;2022-07-23T08:16:25;100671.09;;;31.70;28.30
40612;BME280;26317;44.894;20.286;2022-07-23T08:18:57;100662.72;;;31.77;27.56
40612;BME280;26317;44.894;20.286;2022-07-23T08:21:26;100668.94;;;31.88;28.81
40612;BME280;26317;44.894;20.286;2022-07-23T08:23:54;100676.03;;;31.92;29.23
40612;BME280;26317;44.894;20.286;2022-07-23T08:26:23;100679.88;;;32.02;29.83
40612;BME280;26317;44.894;20.286;2022-07-23T08:28:52;100677.44;;;32.11;29.74
40612;BME280;26317;44.894;20.286;2022-07-23T08:31:21;100678.13;;;32.19;28.20
40612;BME280;26317;44.894;20.286;2022-07-23T08:33:50;100683.59;;;32.29;29.59
40612;BME280;26317;44.894;20.286;2022-07-23T08:36:22;100669.16;;;32.42;27.12
40612;BME280;26317;44.894;20.286;2022-07-23T08:38:53;100676.59;;;32.48;28.62
40612;BME280;26317;44.894;20.286;2022-07-23T08:41:21;100655.25;;;32.42;28.88
40612;BME280;26317;44.894;20.286;2022-07-23T08:43:51;100672.09;;;32.58;28.83
40612;BME280;26317;44.894;20.286;2022-07-23T08:46:20;100676.66;;;32.75;26.73
40612;BME280;26317;44.894;20.286;2022-07-23T08:48:50;100669.00;;;32.82;27.58
40612;BME280;26317;44.894;20.286;2022-07-23T08:51:25;100664.97;;;32.87;28.55
40612;BME280;26317;44.894;20.286;2022-07-23T08:53:56;100661.78;;;32.89;28.75
40612;BME280;26317;44.894;20.286;2022-07-23T08:56:25;100662.06;;;32.98;27.40
40612;BME280;26317;44.894;20.286;2022-07-23T08:58:54;100664.88;;;33.21;25.73
40612;BME280;26317;44.894;20.286;2022-07-23T09:01:23;100664.59;;;33.39;24.96
40612;BME280;26317;44.894;20.286;2022-07-23T09:03:51;100665.84;;;33.57;25.02
40612;BME280;26317;44.894;20.286;2022-07-23T09:06:23;100658.16;;;33.68;26.04
40612;BME280;26317;44.894;20.286;2022-07-23T09:08:52;100663.09;;;33.81;27.95
40612;BME280;26317;44.894;20.286;2022-07-23T09:11:20;100660.53;;;33.90;27.85
40612;BME280;26317;44.894;20.286;2022-07-23T09:13:50;100661.19;;;33.97;26.00
40612;BME280;26317;44.894;20.286;2022-07-23T09:16:26;100655.41;;;34.08;25.52
40612;BME280;26317;44.894;20.286;2022-07-23T09:18:56;100656.19;;;34.28;25.34
40612;BME280;26317;44.894;20.286;2022-07-23T09:21:29;100659.00;;;34.28;27.02
40612;BME280;26317;44.894;20.286;2022-07-23T09:24:00;100653.91;;;34.43;27.04
40612;BME280;26317;44.894;20.286;2022-07-23T09:26:34;100651.25;;;34.55;25.40
40612;BME280;26317;44.894;20.286;2022-07-23T09:29:07;100633.75;;;34.55;25.87
40612;BME280;26317;44.894;20.286;2022-07-23T09:31:48;100647.66;;;34.75;24.75
40612;BME280;26317;44.894;20.286;2022-07-23T09:34:19;100646.19;;;34.86;25.34
40612;BME280;26317;44.894;20.286;2022-07-23T09:36:53;100647.34;;;34.89;24.44
40612;BME280;26317;44.894;20.286;2022-07-23T09:39:26;100643.16;;;34.97;24.73
40612;BME280;26317;44.894;20.286;2022-07-23T09:41:55;100643.06;;;35.00;25.07
40612;BME280;26317;44.894;20.286;2022-07-23T09:44:24;100637.19;;;35.15;24.04
40612;BME280;26317;44.894;20.286;2022-07-23T09:46:58;100641.38;;;35.23;24.38
40612;BME280;26317;44.894;20.286;2022-07-23T09:49:28;100641.44;;;35.35;23.68
40612;BME280;26317;44.894;20.286;2022-07-23T09:52:01;100638.88;;;35.41;23.56
40612;BME280;26317;44.894;20.286;2022-07-23T09:54:32;100635.94;;;35.48;24.33
40612;BME280;26317;44.894;20.286;2022-07-23T09:57:05;100633.03;;;35.51;22.84
40612;BME280;26317;44.894;20.286;2022-07-23T09:59:38;100631.63;;;35.60;22.12
40612;BME280;26317;44.894;20.286;2022-07-23T10:02:09;100630.50;;;35.73;21.16
40612;BME280;26317;44.894;20.286;2022-07-23T10:04:59;100611.03;;;35.70;21.40
40612;BME280;26317;44.894;20.286;2022-07-23T10:07:52;100621.53;;;35.94;23.24
40612;BME280;26317;44.894;20.286;2022-07-23T10:10:42;100606.09;;;35.90;23.90
40612;BME280;26317;44.894;20.286;2022-07-23T10:13:37;100608.59;;;36.01;21.62
40612;BME280;26317;44.894;20.286;2022-07-23T10:16:27;100617.47;;;36.24;20.70
40612;BME280;26317;44.894;20.286;2022-07-23T10:18:55;100612.69;;;36.37;20.18
40612;BME280;26317;44.894;20.286;2022-07-23T10:21:30;100613.84;;;36.53;17.86
40612;BME280;26317;44.894;20.286;2022-07-23T10:24:13;100601.41;;;36.54;21.10
40612;BME280;26317;44.894;20.286;2022-07-23T10:26:53;100597.66;;;36.60;21.96
40612;BME280;26317;44.894;20.286;2022-07-23T10:29:39;100585.00;;;36.56;21.77
40612;BME280;26317;44.894;20.286;2022-07-23T10:32:21;100598.44;;;36.73;19.81
40612;BME280;26317;44.894;20.286;2022-07-23T10:35:00;100593.97;;;36.76;20.43
40612;BME280;26317;44.894;20.286;2022-07-23T10:37:36;100585.56;;;36.76;20.54
40612;BME280;26317;44.894;20.286;2022-07-23T10:40:14;100578.72;;;36.90;20.66
40612;BME280;26317;44.894;20.286;2022-07-23T10:42:44;100576.78;;;36.99;21.65
40612;BME280;26317;44.894;20.286;2022-07-23T10:45:24;100573.91;;;37.15;20.77
40612;BME280;26317;44.894;20.286;2022-07-23T10:47:53;100570.28;;;37.27;20.08
40612;BME280;26317;44.894;20.286;2022-07-23T10:50:23;100577.84;;;37.40;21.37
40612;BME280;26317;44.894;20.286;2022-07-23T10:53:11;100580.81;;;37.45;21.15
40612;BME280;26317;44.894;20.286;2022-07-23T10:55:53;100562.50;;;37.44;21.74
40612;BME280;26317;44.894;20.286;2022-07-23T10:58:45;100564.81;;;37.46;22.60
40612;BME280;26317;44.894;20.286;2022-07-23T11:01:34;100568.28;;;37.50;22.24
40612;BME280;26317;44.894;20.286;2022-07-23T11:04:03;100555.88;;;37.51;22.54
40612;BME280;26317;44.894;20.286;2022-07-23T11:09:39;100565.28;;;37.57;19.41
40612;BME280;26317;44.894;20.286;2022-07-23T11:12:35;100560.63;;;37.63;20.38
40612;BME280;26317;44.894;20.286;2022-07-23T11:15:07;100566.31;;;37.72;20.24
40612;BME280;26317;44.894;20.286;2022-07-23T11:17:38;100548.84;;;37.68;21.73
40612;BME280;26317;44.894;20.286;2022-07-23T11:20:19;100534.72;;;37.71;21.59
40612;BME280;26317;44.894;20.286;2022-07-23T11:22:50;100545.13;;;37.93;21.10
40612;BME280;26317;44.894;20.286;2022-07-23T11:25:31;100552.28;;;38.15;21.03
40612;BME280;26317;44.894;20.286;2022-07-23T11:28:19;100538.81;;;38.32;20.63
40612;BME280;26317;44.894;20.286;2022-07-23T11:30:51;100535.72;;;38.39;22.24
40612;BME280;26317;44.894;20.286;2022-07-23T11:33:21;100528.91;;;38.49;21.92
40612;BME280;26317;44.894;20.286;2022-07-23T11:36:01;100529.44;;;38.66;21.29
40612;BME280;26317;44.894;20.286;2022-07-23T11:38:31;100535.69;;;38.79;21.17
40612;BME280;26317;44.894;20.286;2022-07-23T11:41:01;100527.66;;;38.90;20.22
40612;BME280;26317;44.894;20.286;2022-07-23T11:43:36;100500.38;;;38.91;19.42
40612;BME280;26317;44.894;20.286;2022-07-23T11:46:09;100521.59;;;39.10;20.55
40612;BME280;26317;44.894;20.286;2022-07-23T11:48:38;100518.31;;;39.12;20.90
40612;BME280;26317;44.894;20.286;2022-07-23T11:51:07;100503.94;;;38.91;20.65
40612;BME280;26317;44.894;20.286;2022-07-23T11:53:36;100511.75;;;38.96;20.62
40612;BME280;26317;44.894;20.286;2022-07-23T11:56:06;100501.94;;;39.01;21.01
40612;BME280;26317;44.894;20.286;2022-07-23T11:58:39;100477.41;;;38.83;21.19
40612;BME280;26317;44.894;20.286;2022-07-23T12:01:08;100510.03;;;39.08;21.77
40612;BME280;26317;44.894;20.286;2022-07-23T12:03:37;100513.00;;;39.14;21.56
40612;BME280;26317;44.894;20.286;2022-07-23T12:06:16;100509.59;;;39.28;21.96
40612;BME280;26317;44.894;20.286;2022-07-23T12:08:45;100501.47;;;39.48;20.53
40612;BME280;26317;44.894;20.286;2022-07-23T12:11:14;100506.44;;;39.62;20.79
40612;BME280;26317;44.894;20.286;2022-07-23T12:13:55;100485.88;;;39.56;19.78
40612;BME280;26317;44.894;20.286;2022-07-23T12:16:24;100491.31;;;39.78;20.28
40612;BME280;26317;44.894;20.286;2022-07-23T12:18:53;100492.03;;;39.87;19.34
40612;BME280;26317;44.894;20.286;2022-07-23T12:21:22;100490.44;;;39.95;17.74
40612;BME280;26317;44.894;20.286;2022-07-23T12:23:51;100490.09;;;40.12;19.05
40612;BME280;26317;44.894;20.286;2022-07-23T12:26:20;100489.72;;;40.28;17.36
40612;BME280;26317;44.894;20.286;2022-07-23T12:28:54;100485.00;;;40.34;17.21
40612;BME280;26317;44.894;20.286;2022-07-23T12:31:26;100464.16;;;40.17;18.10
40612;BME280;26317;44.894;20.286;2022-07-23T12:33:54;100474.75;;;40.22;17.35
40612;BME280;26317;44.894;20.286;2022-07-23T12:36:37;100477.16;;;40.38;17.72
40612;BME280;26317;44.894;20.286;2022-07-23T12:39:07;100458.03;;;40.51;18.59
40612;BME280;26317;44.894;20.286;2022-07-23T12:41:51;100469.97;;;40.70;17.98
40612;BME280;26317;44.894;20.286;2022-07-23T12:44:22;100459.34;;;40.88;17.00
40612;BME280;26317;44.894;20.286;2022-07-23T12:46:52;100462.53;;;41.05;15.82
40612;BME280;26317;44.894;20.286;2022-07-23T12:49:27;100467.81;;;41.27;16.43
40612;BME280;26317;44.894;20.286;2022-07-23T12:51:56;100461.09;;;41.39;15.62
40612;BME280;26317;44.894;20.286;2022-07-23T12:54:27;100458.81;;;41.52;15.04
40612;BME280;26317;44.894;20.286;2022-07-23T12:56:56;100459.88;;;41.69;15.68
40612;BME280;26317;44.894;20.286;2022-07-23T12:59:30;100432.47;;;41.70;15.40
40612;BME280;26317;44.894;20.286;2022-07-23T13:01:59;100449.94;;;41.89;15.90
40612;BME280;26317;44.894;20.286;2022-07-23T13:04:28;100448.59;;;41.99;15.41